Time;durP1;ratioP1;P1;durP2;ratioP2;P2;SDS_P1;SDS_P2;PMS_P1;PMS_P2;Temp;Humidity;BMP_temperature;BMP_pressure;BME280_temperature;BME280_humidity;BME280_pressure;Samples;Min_cycle;Max_cycle;Signal;HPM_P1;HPM_P2
2022/02/20 00:01:33;;;;;;;12.32;8.35;;;5.00;99.90;;;;;;5090897;28;20048;-65
2022/02/20 00:04:05;;;;;;;10.90;8.10;;;5.10;99.90;;;;;;5084391;28;20163;-65
2022/02/20 00:06:30;;;;;;;13.18;8.25;;;5.30;99.90;;;;;;5089458;28;20083;-65
2022/02/20 00:08:56;;;;;;;11.45;9.35;;;5.10;99.90;;;;;;5102210;28;20044;-65
2022/02/20 00:11:22;;;;;;;11.68;8.50;;;5.20;99.90;;;;;;5095651;28;20097;-65
2022/02/20 00:13:47;;;;;;;12.93;8.88;;;5.10;99.90;;;;;;5092547;28;20055;-65
2022/02/20 00:16:13;;;;;;;15.30;9.23;;;5.50;99.90;;;;;;5086108;28;20083;-65
2022/02/20 00:18:39;;;;;;;14.63;8.70;;;5.30;99.90;;;;;;5088322;28;20079;-65
2022/02/20 00:21:05;;;;;;;16.75;8.70;;;5.50;99.90;;;;;;5094612;28;20055;-65
2022/02/20 00:23:31;;;;;;;16.65;9.05;;;5.30;99.90;;;;;;5094318;28;20066;-65
2022/02/20 00:25:56;;;;;;;32.88;10.07;;;5.60;99.90;;;;;;5083937;28;20048;-65
2022/02/20 00:28:23;;;;;;;14.98;8.88;;;5.40;99.90;;;;;;5100979;28;20051;-65
2022/02/20 00:30:49;;;;;;;14.27;8.38;;;5.40;99.90;;;;;;5103136;28;20052;-65
2022/02/20 00:33:16;;;;;;;12.60;9.30;;;5.40;99.90;;;;;;5096567;28;20037;-65
2022/02/20 00:35:42;;;;;;;11.45;8.32;;;5.60;99.90;;;;;;5098845;28;20078;-65
2022/02/20 00:38:08;;;;;;;11.57;8.52;;;5.70;99.90;;;;;;5098413;28;20533;-65
2022/02/20 00:40:34;;;;;;;14.27;8.77;;;5.60;99.90;;;;;;5088070;28;20052;-65
2022/02/20 00:43:01;;;;;;;13.18;8.73;;;5.20;99.90;;;;;;5093899;28;20044;-65
2022/02/20 00:45:27;;;;;;;11.27;8.48;;;5.40;99.90;;;;;;5103437;28;20130;-65
2022/02/20 00:47:54;;;;;;;9.80;8.75;;;5.20;99.90;;;;;;5099006;28;20055;-65
2022/02/20 00:50:20;;;;;;;11.00;8.20;;;5.20;99.90;;;;;;5097226;28;20040;-65
2022/02/20 00:52:45;;;;;;;11.88;8.88;;;5.30;99.90;;;;;;5095003;28;20055;-65
2022/02/20 00:55:12;;;;;;;10.27;8.52;;;5.10;99.90;;;;;;5097752;28;20170;-65
2022/02/20 00:57:37;;;;;;;10.18;8.43;;;5.10;99.90;;;;;;5103506;28;20052;-65
2022/02/20 01:00:05;;;;;;;8.75;7.18;;;4.80;99.90;;;;;;5100604;28;20051;-65
2022/02/20 01:02:31;;;;;;;10.20;7.85;;;5.10;99.90;;;;;;5107451;28;20048;-65
2022/02/20 01:04:57;;;;;;;9.68;7.72;;;4.80;99.90;;;;;;5108733;28;20048;-64
2022/02/20 01:07:23;;;;;;;10.60;8.07;;;5.00;99.90;;;;;;5101375;28;20048;-65
2022/02/20 01:09:49;;;;;;;10.23;7.47;;;4.80;99.90;;;;;;5101746;28;20074;-65
2022/02/20 01:12:16;;;;;;;10.27;8.20;;;4.50;99.90;;;;;;5101803;28;20382;-65
2022/02/20 01:14:45;;;;;;;9.35;7.57;;;4.40;99.90;;;;;;5108539;28;20519;-65
2022/02/20 01:17:11;;;;;;;7.90;6.43;;;4.60;99.90;;;;;;5105356;28;20040;-65
2022/02/20 01:19:39;;;;;;;9.38;6.72;;;4.20;99.90;;;;;;5095784;28;20520;-65
2022/02/20 01:22:05;;;;;;;8.15;7.30;;;4.30;99.90;;;;;;5105212;28;20055;-65
2022/02/20 01:24:31;;;;;;;9.73;6.75;;;4.40;99.90;;;;;;5095211;28;20035;-65
2022/02/20 01:26:56;;;;;;;10.15;6.20;;;4.00;99.90;;;;;;5097546;28;20045;-65
2022/02/20 01:29:22;;;;;;;7.95;6.72;;;4.20;99.90;;;;;;5107746;28;20044;-65
2022/02/20 01:31:49;;;;;;;9.15;6.88;;;4.30;99.90;;;;;;5097455;28;20032;-65
2022/02/20 01:34:15;;;;;;;9.07;7.35;;;4.40;99.90;;;;;;5097809;28;20044;-65
2022/02/20 01:36:41;;;;;;;10.73;6.70;;;4.40;99.90;;;;;;5097373;28;20067;-65
2022/02/20 01:39:07;;;;;;;9.90;6.97;;;4.40;99.90;;;;;;5090279;28;20048;-65
2022/02/20 01:41:33;;;;;;;7.25;5.45;;;4.30;99.90;;;;;;5095891;28;20048;-65
2022/02/20 01:43:58;;;;;;;9.52;6.25;;;4.40;99.90;;;;;;5101280;28;20040;-64
2022/02/20 01:46:24;;;;;;;8.35;5.43;;;4.40;99.90;;;;;;5100510;28;20131;-64
2022/02/20 01:48:51;;;;;;;6.32;4.18;;;4.30;99.90;;;;;;5100688;28;20040;-65
2022/02/20 01:51:16;;;;;;;7.35;5.00;;;4.00;99.90;;;;;;5106837;28;20044;-65
2022/02/20 01:53:42;;;;;;;6.60;5.05;;;4.30;99.90;;;;;;5105256;28;20063;-65
2022/02/20 01:56:10;;;;;;;5.82;4.47;;;3.90;99.90;;;;;;5092308;28;20549;-64
2022/02/20 01:58:36;;;;;;;6.22;4.05;;;3.90;99.90;;;;;;5103317;28;20105;-64
2022/02/20 02:01:03;;;;;;;7.63;4.10;;;3.70;99.90;;;;;;5092983;28;20092;-65
2022/02/20 02:03:29;;;;;;;7.30;4.90;;;3.50;99.90;;;;;;5100079;28;20031;-65
2022/02/20 02:05:54;;;;;;;8.75;4.95;;;3.60;99.90;;;;;;5096846;28;20631;-64
2022/02/20 02:08:20;;;;;;;8.65;5.63;;;3.90;99.90;;;;;;5097677;28;20115;-64
2022/02/20 02:10:46;;;;;;;7.03;5.32;;;3.90;99.90;;;;;;5094361;28;20040;-65
2022/02/20 02:13:12;;;;;;;7.43;4.72;;;3.80;99.90;;;;;;5104074;28;20047;-64
2022/02/20 02:15:51;;;;;;;6.47;4.85;;;3.60;99.90;;;;;;5099303;28;20032;-65
2022/02/20 02:18:17;;;;;;;8.77;5.35;;;3.80;99.90;;;;;;5096101;28;20112;-65
2022/02/20 02:20:43;;;;;;;8.90;5.40;;;3.80;99.90;;;;;;5093290;28;20053;-64
2022/02/20 02:23:10;;;;;;;6.78;5.18;;;3.70;99.90;;;;;;5104437;28;20051;-65
2022/02/20 02:25:38;;;;;;;7.53;4.82;;;3.60;99.90;;;;;;5098376;28;20047;-65
2022/02/20 02:28:04;;;;;;;6.30;4.68;;;3.80;99.90;;;;;;5094060;28;20069;-65
2022/02/20 02:30:30;;;;;;;9.05;5.13;;;3.70;99.90;;;;;;5100877;28;20078;-65
2022/02/20 02:32:56;;;;;;;4.75;3.53;;;3.30;99.90;;;;;;5097572;28;20056;-64
2022/02/20 02:35:22;;;;;;;4.93;3.38;;;3.80;99.90;;;;;;5099440;28;20036;-65
2022/02/20 02:37:47;;;;;;;3.95;3.17;;;3.50;99.90;;;;;;5105574;28;20055;-64
2022/02/20 02:40:13;;;;;;;5.15;3.63;;;3.50;99.90;;;;;;5098953;28;20047;-64
2022/02/20 02:42:39;;;;;;;4.82;3.70;;;3.50;99.90;;;;;;5106757;28;20097;-65
2022/02/20 02:45:05;;;;;;;6.03;4.03;;;3.50;99.90;;;;;;5092756;28;20072;-65
2022/02/20 02:47:31;;;;;;;6.40;4.18;;;3.90;99.90;;;;;;5105762;28;20083;-65
2022/02/20 02:49:57;;;;;;;5.32;4.13;;;3.60;99.90;;;;;;5095608;28;20048;-65
2022/02/20 02:52:22;;;;;;;5.68;4.32;;;3.60;99.90;;;;;;5099384;28;20052;-65
2022/02/20 02:54:48;;;;;;;4.82;4.13;;;3.90;99.90;;;;;;5103085;28;20080;-65
2022/02/20 02:57:14;;;;;;;6.10;4.20;;;3.90;99.90;;;;;;5088420;28;20078;-65
2022/02/20 02:59:40;;;;;;;7.20;4.97;;;3.70;99.90;;;;;;5096041;28;20506;-65
2022/02/20 03:02:07;;;;;;;6.05;4.65;;;3.70;99.90;;;;;;5100911;28;20046;-65
2022/02/20 03:04:33;;;;;;;8.25;5.03;;;3.70;99.90;;;;;;5103336;28;20082;-65
2022/02/20 03:06:59;;;;;;;8.57;5.50;;;3.60;99.90;;;;;;5094700;28;20054;-65
2022/02/20 03:09:26;;;;;;;6.57;5.28;;;3.50;99.90;;;;;;5100491;28;20043;-65
2022/02/20 03:11:52;;;;;;;8.95;5.70;;;3.50;99.90;;;;;;5090488;28;20136;-64
2022/02/20 03:14:17;;;;;;;7.07;5.30;;;3.70;99.90;;;;;;5098265;28;20110;-65
2022/02/20 03:16:43;;;;;;;7.13;4.60;;;3.40;99.90;;;;;;5102533;28;20052;-65
2022/02/20 03:19:09;;;;;;;7.13;5.50;;;3.30;99.90;;;;;;5101823;28;20075;-65
2022/02/20 03:21:35;;;;;;;7.70;5.18;;;3.60;99.90;;;;;;5105172;28;20052;-65
2022/02/20 03:24:01;;;;;;;9.73;5.60;;;3.50;99.90;;;;;;5094913;28;20723;-65
2022/02/20 03:26:26;;;;;;;7.97;5.10;;;3.50;99.90;;;;;;5096900;28;20060;-65
2022/02/20 03:28:52;;;;;;;7.22;5.38;;;3.50;99.90;;;;;;5094724;28;20055;-65
2022/02/20 03:31:18;;;;;;;6.57;4.88;;;3.30;99.90;;;;;;5094481;28;20037;-65
2022/02/20 03:33:44;;;;;;;8.05;5.50;;;3.10;99.90;;;;;;5099110;28;20065;-65
2022/02/20 03:36:09;;;;;;;6.72;4.72;;;3.10;99.90;;;;;;5105720;28;20115;-65
2022/02/20 03:38:35;;;;;;;7.10;5.10;;;3.30;99.90;;;;;;5097375;28;20060;-65
2022/02/20 03:41:01;;;;;;;8.35;4.70;;;3.30;99.90;;;;;;5093660;28;20051;-65
2022/02/20 03:43:27;;;;;;;5.93;4.60;;;3.40;99.90;;;;;;5093790;28;20044;-65
2022/02/20 03:45:53;;;;;;;5.85;4.75;;;3.40;99.90;;;;;;5102517;28;20094;-65
2022/02/20 03:48:18;;;;;;;5.50;4.53;;;3.60;99.90;;;;;;5099183;28;20051;-65
2022/02/20 03:50:44;;;;;;;5.57;4.75;;;3.40;99.90;;;;;;5096164;28;20102;-65
2022/02/20 03:53:10;;;;;;;8.23;5.13;;;3.20;99.90;;;;;;5097019;28;20052;-65
2022/02/20 03:55:35;;;;;;;6.50;4.90;;;3.20;99.90;;;;;;5104715;28;20047;-65
2022/02/20 03:58:01;;;;;;;7.78;4.75;;;3.50;99.90;;;;;;5091599;28;20044;-65
2022/02/20 04:00:27;;;;;;;6.05;5.00;;;3.60;99.90;;;;;;5103537;28;20036;-65
2022/02/20 04:02:53;;;;;;;5.95;4.65;;;3.30;99.90;;;;;;5098059;28;20047;-65
2022/02/20 04:05:20;;;;;;;8.30;4.68;;;3.70;99.90;;;;;;5102654;28;20111;-65
2022/02/20 04:07:46;;;;;;;5.57;4.57;;;3.70;99.90;;;;;;5097166;28;20097;-65
2022/02/20 04:10:13;;;;;;;7.35;5.00;;;3.30;99.90;;;;;;5100060;28;20039;-65
2022/02/20 04:12:39;;;;;;;6.18;4.63;;;3.50;99.90;;;;;;5104409;28;20044;-65
2022/02/20 04:15:06;;;;;;;7.72;4.20;;;3.70;99.90;;;;;;5093649;28;20677;-65
2022/02/20 04:17:44;;;;;;;6.57;4.53;;;3.40;99.90;;;;;;5098311;28;20036;-65
2022/02/20 04:20:12;;;;;;;6.22;4.63;;;3.70;99.90;;;;;;5092996;28;20062;-65
2022/02/20 04:22:39;;;;;;;6.35;4.00;;;3.70;99.90;;;;;;5099830;28;20044;-65
2022/02/20 04:25:06;;;;;;;6.78;4.20;;;3.60;99.90;;;;;;5102354;28;20044;-65
2022/02/20 04:27:32;;;;;;;6.35;4.50;;;3.30;99.90;;;;;;5097412;28;20051;-65
2022/02/20 04:29:57;;;;;;;6.00;4.13;;;3.80;99.90;;;;;;5097783;28;20044;-65
2022/02/20 04:32:23;;;;;;;6.93;4.25;;;3.70;99.90;;;;;;5099201;28;20064;-65
2022/02/20 04:34:49;;;;;;;5.78;3.75;;;3.80;99.90;;;;;;5096050;28;20173;-65
2022/02/20 04:37:14;;;;;;;5.00;3.72;;;3.60;99.90;;;;;;5094718;28;20059;-65
2022/02/20 04:39:40;;;;;;;6.07;3.92;;;3.70;99.90;;;;;;5092849;28;20488;-64
2022/02/20 04:42:06;;;;;;;5.32;3.97;;;3.90;99.90;;;;;;5099635;28;20048;-65
2022/02/20 04:44:32;;;;;;;4.32;3.78;;;3.70;99.90;;;;;;5100016;28;20041;-65
2022/02/20 04:46:58;;;;;;;9.20;3.70;;;3.70;99.90;;;;;;5098846;28;20043;-65
2022/02/20 04:49:24;;;;;;;4.80;3.92;;;3.90;99.90;;;;;;5105468;28;20044;-65
2022/02/20 04:51:49;;;;;;;7.63;4.10;;;3.70;99.90;;;;;;5105085;28;20043;-65
2022/02/20 04:54:15;;;;;;;6.47;4.80;;;3.70;99.90;;;;;;5092596;28;20597;-65
2022/02/20 04:56:42;;;;;;;6.05;4.10;;;3.80;99.90;;;;;;5092785;28;20040;-65
2022/02/20 04:59:10;;;;;;;6.15;4.25;;;4.10;99.90;;;;;;5103383;28;20109;-65
2022/02/20 05:01:37;;;;;;;6.88;4.10;;;3.90;99.90;;;;;;5103141;28;20059;-65
2022/02/20 05:04:02;;;;;;;7.40;4.20;;;4.20;99.90;;;;;;5097348;28;20048;-65
2022/02/20 05:06:28;;;;;;;7.15;3.78;;;4.10;99.90;;;;;;5093843;28;20075;-65
2022/02/20 05:08:57;;;;;;;6.07;3.35;;;4.00;99.90;;;;;;5093830;28;20076;-65
2022/02/20 05:11:24;;;;;;;4.32;3.65;;;4.30;99.90;;;;;;5102295;28;20056;-65
2022/02/20 05:13:58;;;;;;;7.72;4.32;;;4.30;99.90;;;;;;5091066;28;20043;-65
2022/02/20 05:16:24;;;;;;;5.88;3.97;;;4.10;99.90;;;;;;5098800;28;20041;-65
2022/02/20 05:18:51;;;;;;;6.85;3.83;;;4.10;99.90;;;;;;5091467;28;20084;-65
2022/02/20 05:21:17;;;;;;;5.95;3.45;;;4.50;99.90;;;;;;5099172;28;20126;-65
2022/02/20 05:23:43;;;;;;;5.20;3.25;;;4.40;99.90;;;;;;5093110;28;20079;-65
2022/02/20 05:26:08;;;;;;;7.00;4.10;;;4.60;99.90;;;;;;5096607;28;20032;-65
2022/02/20 05:28:34;;;;;;;5.88;3.58;;;4.30;99.90;;;;;;5097494;28;20051;-65
2022/02/20 05:31:00;;;;;;;6.57;3.63;;;4.40;99.90;;;;;;5097322;28;20438;-65
2022/02/20 05:33:26;;;;;;;7.25;3.72;;;4.20;99.90;;;;;;5098079;28;20067;-65
2022/02/20 05:35:52;;;;;;;8.68;4.00;;;4.30;99.90;;;;;;5097506;28;20035;-65
2022/02/20 05:38:17;;;;;;;7.32;4.32;;;4.20;99.90;;;;;;5095236;28;20044;-65
2022/02/20 05:40:44;;;;;;;6.35;4.45;;;4.30;99.90;;;;;;5100756;28;20090;-65
2022/02/20 05:43:10;;;;;;;5.35;3.42;;;4.20;99.90;;;;;;5100634;28;20126;-65
2022/02/20 05:45:36;;;;;;;6.30;3.90;;;4.30;99.90;;;;;;5101388;28;20058;-65
2022/02/20 05:48:03;;;;;;;7.43;3.65;;;4.70;99.90;;;;;;5107456;28;20040;-65
2022/02/20 05:50:30;;;;;;;13.75;4.75;;;4.50;99.90;;;;;;5100132;28;20073;-65
2022/02/20 05:52:56;;;;;;;6.53;3.88;;;4.70;99.90;;;;;;5102611;28;20045;-65
2022/02/20 05:55:22;;;;;;;4.75;3.58;;;4.50;99.90;;;;;;5103759;28;20055;-65
2022/02/20 05:57:49;;;;;;;5.88;3.72;;;4.70;99.90;;;;;;5095760;28;20439;-65
2022/02/20 06:00:22;;;;;;;4.97;3.50;;;4.50;99.90;;;;;;5096046;28;20044;-65
2022/02/20 06:02:47;;;;;;;5.20;3.60;;;4.90;99.90;;;;;;5103149;28;20036;-65
2022/02/20 06:05:13;;;;;;;6.43;4.03;;;4.90;99.90;;;;;;5092571;28;20041;-65
2022/02/20 06:07:40;;;;;;;7.88;3.70;;;4.60;99.90;;;;;;5100484;28;20119;-65
2022/02/20 06:10:07;;;;;;;6.93;2.70;;;4.90;99.90;;;;;;5101764;28;20040;-65
2022/02/20 06:12:33;;;;;;;6.82;3.60;;;5.10;99.90;;;;;;5100948;28;20048;-65
2022/02/20 06:14:59;;;;;;;6.00;3.13;;;4.80;99.90;;;;;;5099455;28;20039;-65
2022/02/20 06:17:24;;;;;;;4.95;3.35;;;4.90;99.90;;;;;;5097517;28;20100;-65
2022/02/20 06:19:50;;;;;;;6.22;3.38;;;4.70;99.90;;;;;;5096275;28;20085;-65
2022/02/20 06:22:16;;;;;;;6.22;3.67;;;4.90;99.90;;;;;;5099858;28;20044;-65
2022/02/20 06:24:42;;;;;;;7.22;3.42;;;4.80;99.90;;;;;;5094314;28;20040;-65
2022/02/20 06:27:08;;;;;;;6.63;3.20;;;4.90;99.90;;;;;;5104860;28;20070;-65
2022/02/20 06:29:33;;;;;;;10.43;3.25;;;4.80;99.90;;;;;;5094297;28;20048;-65
2022/02/20 06:32:00;;;;;;;6.40;2.58;;;5.00;99.90;;;;;;5102696;28;20153;-65
2022/02/20 06:34:26;;;;;;;8.23;3.78;;;5.10;99.90;;;;;;5100618;28;20060;-65
2022/02/20 06:36:52;;;;;;;7.18;4.00;;;4.70;99.90;;;;;;5105538;28;20051;-65
2022/02/20 06:39:18;;;;;;;6.55;4.13;;;4.70;99.90;;;;;;5098954;28;20044;-65
2022/02/20 06:41:44;;;;;;;8.38;4.15;;;4.90;99.90;;;;;;5100052;28;20050;-65
2022/02/20 06:44:10;;;;;;;7.05;4.22;;;4.60;99.90;;;;;;5101377;28;20052;-65
2022/02/20 06:46:36;;;;;;;6.32;3.50;;;4.60;99.90;;;;;;5104064;28;20048;-65
2022/02/20 06:49:04;;;;;;;7.72;4.80;;;4.90;99.90;;;;;;5099563;28;20051;-65
2022/02/20 06:51:29;;;;;;;6.65;4.57;;;4.90;99.90;;;;;;5096556;28;20052;-65
2022/02/20 06:53:55;;;;;;;8.00;5.07;;;4.80;99.90;;;;;;5092512;28;20048;-65
2022/02/20 06:56:21;;;;;;;11.00;3.88;;;4.90;99.90;;;;;;5095366;28;20055;-65
2022/02/20 06:58:47;;;;;;;8.10;4.40;;;4.60;99.90;;;;;;5091702;28;20103;-65
2022/02/20 07:01:13;;;;;;;8.18;4.18;;;4.70;99.90;;;;;;5094935;28;20105;-65
2022/02/20 07:03:38;;;;;;;7.85;4.18;;;4.70;99.90;;;;;;5091061;28;20071;-65
2022/02/20 07:06:04;;;;;;;7.97;4.68;;;4.90;99.90;;;;;;5104968;28;20082;-65
2022/02/20 07:08:31;;;;;;;5.20;3.15;;;4.70;99.90;;;;;;5099064;28;20047;-65
2022/02/20 07:10:57;;;;;;;7.43;3.58;;;4.90;99.90;;;;;;5098396;28;20444;-65
2022/02/20 07:13:23;;;;;;;6.45;4.18;;;5.10;99.90;;;;;;5092791;28;20059;-65
2022/02/20 07:15:49;;;;;;;10.25;3.92;;;5.10;99.90;;;;;;5090358;28;20063;-65
2022/02/20 07:18:16;;;;;;;11.68;4.65;;;4.90;99.90;;;;;;5105593;28;20044;-65
2022/02/20 07:20:44;;;;;;;5.03;3.53;;;4.80;99.90;;;;;;5102385;28;20099;-65
2022/02/20 07:23:11;;;;;;;7.35;4.03;;;5.20;99.90;;;;;;5098628;28;20052;-65
2022/02/20 07:25:37;;;;;;;11.77;4.93;;;5.20;99.90;;;;;;5102439;28;20040;-65
2022/02/20 07:28:03;;;;;;;10.15;4.55;;;4.90;99.90;;;;;;5090473;28;20056;-65
2022/02/20 07:30:29;;;;;;;6.63;3.83;;;4.90;99.90;;;;;;5106752;28;20047;-65
2022/02/20 07:32:56;;;;;;;9.30;4.10;;;4.80;99.90;;;;;;5099493;28;20087;-65
2022/02/20 07:35:22;;;;;;;7.40;4.05;;;5.10;99.90;;;;;;5095409;28;20049;-65
2022/02/20 07:37:48;;;;;;;11.85;5.97;;;5.20;99.90;;;;;;5091623;28;20469;-65
2022/02/20 07:40:16;;;;;;;9.82;5.70;;;5.10;99.90;;;;;;5091825;28;20048;-65
2022/02/20 07:42:42;;;;;;;8.32;5.20;;;5.00;99.90;;;;;;5098973;28;20118;-65
2022/02/20 07:45:08;;;;;;;8.38;4.47;;;4.90;99.90;;;;;;5098765;28;20040;-65
2022/02/20 07:47:48;;;;;;;10.93;6.70;;;5.10;99.90;;;;;;5102345;28;20047;-65
2022/02/20 07:50:14;;;;;;;12.20;7.47;;;5.00;99.90;;;;;;5101362;28;20536;-65
2022/02/20 07:52:39;;;;;;;11.43;5.60;;;5.20;99.90;;;;;;5090734;28;20032;-65
2022/02/20 07:55:05;;;;;;;11.55;5.97;;;5.20;99.90;;;;;;5094040;28;20051;-65
2022/02/20 07:57:31;;;;;;;10.93;6.32;;;5.30;99.90;;;;;;5090632;28;20132;-65
2022/02/20 07:59:57;;;;;;;13.40;7.63;;;5.30;99.90;;;;;;5088222;28;20040;-65
2022/02/20 08:02:22;;;;;;;12.02;7.43;;;5.20;99.90;;;;;;5097646;28;20052;-65
2022/02/20 08:04:48;;;;;;;12.30;7.57;;;4.90;99.90;;;;;;5105025;28;20036;-65
2022/02/20 08:07:14;;;;;;;10.88;6.75;;;5.10;99.90;;;;;;5104534;28;20067;-65
2022/02/20 08:09:39;;;;;;;14.57;6.80;;;4.80;99.90;;;;;;5097958;28;20048;-65
2022/02/20 08:12:05;;;;;;;12.70;7.10;;;4.90;99.90;;;;;;5102536;28;20044;-65
2022/02/20 08:14:31;;;;;;;11.02;6.25;;;5.10;99.90;;;;;;5068246;28;20056;-65
2022/02/20 08:16:57;;;;;;;10.85;7.75;;;5.00;99.90;;;;;;5092242;28;20036;-65
2022/02/20 08:19:23;;;;;;;10.52;6.72;;;5.10;99.90;;;;;;5097199;28;20075;-65
2022/02/20 08:21:50;;;;;;;11.25;6.82;;;5.40;99.90;;;;;;5093960;28;20040;-65
2022/02/20 08:24:16;;;;;;;10.13;6.13;;;5.70;99.90;;;;;;5101851;28;20047;-65
2022/02/20 08:26:42;;;;;;;11.68;6.30;;;5.80;99.90;;;;;;5095545;28;20056;-65
2022/02/20 08:29:07;;;;;;;10.82;6.22;;;5.60;99.90;;;;;;5098127;28;20043;-65
2022/02/20 08:31:33;;;;;;;9.52;6.88;;;5.80;99.90;;;;;;5097005;28;20074;-65
2022/02/20 08:33:59;;;;;;;11.25;7.03;;;5.90;99.90;;;;;;5089664;28;20033;-65
2022/02/20 08:36:25;;;;;;;12.80;6.95;;;5.80;99.90;;;;;;5104023;28;20567;-65
2022/02/20 08:38:50;;;;;;;12.68;7.40;;;5.70;99.90;;;;;;5098952;28;20048;-65
2022/02/20 08:41:16;;;;;;;11.40;7.97;;;5.80;99.90;;;;;;5103854;28;20059;-65
2022/02/20 08:43:42;;;;;;;14.27;7.00;;;5.90;99.90;;;;;;5097188;28;20053;-65
2022/02/20 08:46:07;;;;;;;11.32;7.38;;;5.80;99.90;;;;;;5105137;28;20066;-65
2022/02/20 08:48:36;;;;;;;12.38;8.25;;;5.90;99.90;;;;;;5104593;28;20051;-65
2022/02/20 08:51:03;;;;;;;14.98;8.63;;;5.90;99.90;;;;;;5105127;28;20114;-65
2022/02/20 08:53:29;;;;;;;13.35;7.47;;;6.20;99.90;;;;;;5098441;28;20369;-65
2022/02/20 08:55:54;;;;;;;11.43;7.18;;;6.10;99.90;;;;;;5104409;28;20047;-65
2022/02/20 08:58:20;;;;;;;12.75;7.15;;;6.20;99.90;;;;;;5096731;28;20047;-65
2022/02/20 09:00:46;;;;;;;14.18;6.13;;;6.50;99.90;;;;;;5090386;28;20044;-65
2022/02/20 09:03:12;;;;;;;11.35;7.70;;;6.60;99.90;;;;;;5094900;28;20040;-65
2022/02/20 09:05:37;;;;;;;12.80;7.78;;;6.70;99.90;;;;;;5103598;28;20071;-65
2022/02/20 09:08:03;;;;;;;14.70;7.50;;;6.40;99.90;;;;;;5098011;28;20055;-65
2022/02/20 09:10:29;;;;;;;15.73;8.80;;;6.50;99.90;;;;;;5096300;28;20044;-65
2022/02/20 09:12:55;;;;;;;11.52;7.25;;;6.80;99.90;;;;;;5108432;28;20047;-65
2022/02/20 09:15:20;;;;;;;12.07;8.75;;;6.70;99.90;;;;;;5073199;28;20074;-69
2022/02/20 09:17:46;;;;;;;14.18;7.80;;;6.60;99.90;;;;;;5097234;28;20507;-69
2022/02/20 09:20:12;;;;;;;11.15;6.72;;;6.90;99.90;;;;;;5099865;28;20081;-70
2022/02/20 09:22:41;;;;;;;10.90;7.38;;;6.80;99.90;;;;;;5082636;28;20059;-69
2022/02/20 09:25:08;;;;;;;14.68;7.78;;;7.00;99.90;;;;;;5099384;28;20047;-69
2022/02/20 09:27:34;;;;;;;10.80;6.45;;;6.80;99.90;;;;;;5105873;28;20099;-69
2022/02/20 09:30:00;;;;;;;14.10;7.60;;;7.10;99.90;;;;;;5106157;28;20070;-68
2022/02/20 09:32:27;;;;;;;12.77;8.25;;;7.00;99.90;;;;;;5105149;28;20048;-68
2022/02/20 09:34:53;;;;;;;10.88;7.43;;;7.20;99.90;;;;;;5100796;28;20049;-68
2022/02/20 09:37:19;;;;;;;14.02;6.93;;;7.20;99.90;;;;;;5101889;28;20106;-67
2022/02/20 09:39:44;;;;;;;11.82;7.47;;;7.30;99.90;;;;;;5104558;28;20404;-68
2022/02/20 09:42:10;;;;;;;11.85;7.40;;;7.40;99.90;;;;;;5106847;28;20032;-69
2022/02/20 09:44:36;;;;;;;10.68;6.60;;;7.50;99.90;;;;;;5099698;28;20048;-68
2022/02/20 09:47:03;;;;;;;11.23;6.68;;;7.50;99.90;;;;;;5104096;28;20032;-70
2022/02/20 09:49:29;;;;;;;12.07;6.13;;;7.60;99.90;;;;;;5101751;28;20090;-70
2022/02/20 09:51:56;;;;;;;11.07;5.95;;;7.80;99.90;;;;;;5101900;28;20047;-70
2022/02/20 09:54:22;;;;;;;12.98;6.20;;;7.80;99.90;;;;;;5102779;28;20346;-69
2022/02/20 09:56:48;;;;;;;13.25;5.25;;;8.00;99.90;;;;;;5101002;28;20044;-69
2022/02/20 09:59:14;;;;;;;10.80;5.40;;;8.20;99.90;;;;;;5103201;28;20036;-69
2022/02/20 10:02:14;;;;;;;15.25;6.13;;;8.30;99.90;;;;;;5104285;28;20640;-69
2022/02/20 10:04:45;;;;;;;18.88;5.45;;;8.30;99.90;;;;;;5100714;28;20122;-67
2022/02/20 10:07:38;;;;;;;17.92;5.30;;;8.50;99.90;;;;;;5102322;28;20101;-68
2022/02/20 10:10:28;;;;;;;16.40;4.47;;;8.50;99.90;;;;;;5102387;28;20048;-72
2022/02/20 10:12:59;;;;;;;15.15;4.90;;;8.50;99.90;;;;;;5090636;28;20048;-67
2022/02/20 10:15:26;;;;;;;19.80;5.10;;;8.50;99.90;;;;;;5069181;28;20065;-68
2022/02/20 10:18:22;;;;;;;18.55;4.97;;;8.70;99.90;;;;;;5095287;28;20070;-68
2022/02/20 10:20:59;;;;;;;26.38;5.60;;;8.70;99.90;;;;;;5081782;28;20052;-68
2022/02/20 10:23:35;;;;;;;21.30;4.95;;;8.70;99.90;;;;;;5084602;28;20400;-68
2022/02/20 10:26:11;;;;;;;25.20;5.50;;;8.90;99.90;;;;;;5077092;28;20052;-68
2022/02/20 10:28:36;;;;;;;24.85;5.57;;;8.90;99.90;;;;;;5075712;28;20132;-68
2022/02/20 10:31:02;;;;;;;19.08;5.38;;;9.00;99.90;;;;;;5076693;28;20118;-68
2022/02/20 10:33:28;;;;;;;26.95;5.22;;;9.10;99.90;;;;;;5084477;28;20054;-68
2022/02/20 10:35:55;;;;;;;31.27;5.63;;;8.90;99.90;;;;;;5083231;28;20044;-68
2022/02/20 10:38:23;;;;;;;36.17;6.00;;;9.20;99.90;;;;;;5084778;28;20068;-68
2022/02/20 10:40:51;;;;;;;27.73;5.53;;;9.20;99.90;;;;;;5077741;28;20040;-69
2022/02/20 10:43:32;;;;;;;33.05;6.05;;;9.10;99.90;;;;;;5078613;28;20044;-69
2022/02/20 10:46:11;;;;;;;29.50;4.47;;;9.20;99.90;;;;;;5071633;28;20041;-69
2022/02/20 10:48:42;;;;;;;28.10;5.82;;;9.30;99.90;;;;;;5079023;28;20048;-69
2022/02/20 10:51:09;;;;;;;39.25;6.65;;;9.20;99.90;;;;;;5082662;28;20048;-69
2022/02/20 10:53:35;;;;;;;31.25;5.22;;;9.30;99.90;;;;;;5079634;28;20052;-69
2022/02/20 10:56:01;;;;;;;30.88;5.25;;;9.20;99.90;;;;;;5077055;28;20045;-70
2022/02/20 10:58:35;;;;;;;35.08;5.22;;;9.10;99.90;;;;;;5070676;28;20076;-70
2022/02/20 11:01:03;;;;;;;34.85;5.78;;;9.10;99.90;;;;;;5071871;28;20044;-70
2022/02/20 11:03:31;;;;;;;27.90;6.03;;;9.40;99.90;;;;;;5079699;28;20053;-70
2022/02/20 11:05:58;;;;;;;29.52;5.93;;;9.10;99.90;;;;;;5079209;28;20060;-68
2022/02/20 11:08:26;;;;;;;29.42;6.10;;;9.10;99.90;;;;;;5082321;28;20069;-75
2022/02/20 11:10:53;;;;;;;31.85;5.32;;;9.10;99.90;;;;;;5076877;28;20041;-68
2022/02/20 11:13:20;;;;;;;32.97;7.28;;;9.40;99.90;;;;;;5081282;28;20040;-70
2022/02/20 11:15:48;;;;;;;35.50;5.97;;;9.10;99.90;;;;;;5053817;28;20080;-68
2022/02/20 11:18:16;;;;;;;30.85;5.57;;;9.30;99.90;;;;;;5017218;28;20627;-69
2022/02/20 11:20:47;;;;;;;29.75;5.43;;;9.30;99.90;;;;;;5093476;28;20109;-70
2022/02/20 11:23:19;;;;;;;34.75;6.20;;;9.50;99.90;;;;;;5097425;28;20071;-71
2022/02/20 11:25:46;;;;;;;38.20;6.57;;;9.40;99.90;;;;;;5095949;28;20071;-70
2022/02/20 11:28:13;;;;;;;37.97;7.18;;;9.60;99.90;;;;;;5094176;28;20099;-70
2022/02/20 11:30:39;;;;;;;29.98;6.30;;;9.40;99.90;;;;;;5091889;28;20430;-71
2022/02/20 11:33:09;;;;;;;35.55;6.47;;;9.40;99.90;;;;;;5060818;28;20036;-71
2022/02/20 11:35:48;;;;;;;35.85;6.30;;;9.60;99.90;;;;;;5084877;28;20125;-72
2022/02/20 11:38:16;;;;;;;39.15;7.38;;;9.40;99.90;;;;;;5096777;28;20058;-71
2022/02/20 11:40:55;;;;;;;31.88;6.68;;;9.40;99.90;;;;;;5086591;28;20105;-70
2022/02/20 11:43:45;;;;;;;34.23;5.87;;;9.50;99.90;;;;;;5096683;28;20461;-71
2022/02/20 11:46:20;;;;;;;37.88;8.25;;;9.40;99.90;;;;;;5067419;28;20327;-71
2022/02/20 11:49:04;;;;;;;41.35;7.82;;;9.60;99.90;;;;;;5088930;28;20040;-69
2022/02/20 11:51:31;;;;;;;38.65;6.40;;;9.40;99.90;;;;;;5065106;28;20059;-70
2022/02/20 11:54:13;;;;;;;29.00;6.13;;;9.40;99.90;;;;;;5080958;28;20048;-71
2022/02/20 11:56:39;;;;;;;42.22;7.05;;;9.40;99.90;;;;;;5085783;28;20055;-70
2022/02/20 11:59:18;;;;;;;32.80;7.75;;;9.50;99.90;;;;;;5077547;28;20480;-71
2022/02/20 12:02:06;;;;;;;41.50;6.30;;;9.40;99.90;;;;;;5076099;28;20543;-70
2022/02/20 12:04:50;;;;;;;27.70;5.22;;;9.60;99.90;;;;;;5080406;28;20036;-66
2022/02/20 12:07:41;;;;;;;31.17;7.95;;;9.50;99.90;;;;;;5086987;28;20051;-68
2022/02/20 12:10:24;;;;;;;31.13;6.47;;;9.60;99.90;;;;;;5083934;28;20458;-68
2022/02/20 12:12:55;;;;;;;27.40;5.28;;;9.50;99.90;;;;;;5092905;28;20097;-68
2022/02/20 12:15:34;;;;;;;35.30;5.97;;;9.50;99.90;;;;;;5095598;28;20073;-68
2022/02/20 12:18:00;;;;;;;36.33;7.35;;;9.40;99.90;;;;;;5082383;28;20047;-67
2022/02/20 12:20:54;;;;;;;32.78;5.97;;;9.40;99.90;;;;;;5072616;28;20052;-67
2022/02/20 12:23:46;;;;;;;34.75;6.95;;;9.30;99.90;;;;;;5095398;28;20048;-69
2022/02/20 12:26:50;;;;;;;28.65;6.35;;;9.40;99.90;;;;;;5080317;28;20094;-69
2022/02/20 12:29:19;;;;;;;29.00;5.40;;;9.40;99.90;;;;;;5082496;28;20365;-69
2022/02/20 12:32:30;;;;;;;32.00;7.45;;;9.50;99.90;;;;;;5095117;28;20551;-70
2022/02/20 12:35:15;;;;;;;29.45;5.88;;;9.60;99.90;;;;;;5074473;28;20064;-69
2022/02/20 12:37:45;;;;;;;33.55;7.72;;;9.40;99.90;;;;;;5080981;28;20048;-70
2022/02/20 12:40:16;;;;;;;33.08;5.85;;;9.40;99.90;;;;;;5092576;28;20043;-68
2022/02/20 12:43:13;;;;;;;27.98;5.90;;;9.60;99.90;;;;;;5090939;28;20095;-69
2022/02/20 12:45:41;;;;;;;35.55;5.95;;;9.70;99.90;;;;;;5075928;28;20336;-70
2022/02/20 12:48:09;;;;;;;32.63;6.35;;;9.40;99.90;;;;;;5091362;28;20134;-68
2022/02/20 12:50:41;;;;;;;32.20;6.30;;;9.50;99.90;;;;;;5101007;28;20073;-68
2022/02/20 12:53:08;;;;;;;25.10;5.55;;;9.60;99.90;;;;;;5096121;28;20071;-69
2022/02/20 12:55:36;;;;;;;34.42;6.38;;;9.70;99.90;;;;;;5086700;28;20127;-69
2022/02/20 12:58:10;;;;;;;25.20;5.53;;;9.40;99.90;;;;;;5088673;28;20048;-72